Time;durP1;ratioP1;P1;durP2;ratioP2;P2;SDS_P1;SDS_P2;PMS_P1;PMS_P2;Temp;Humidity;BMP_temperature;BMP_pressure;BME280_temperature;BME280_humidity;BME280_pressure;Samples;Min_cycle;Max_cycle;Signal;HPM_P1;HPM_P2
2022/03/13 00:00:20;;;;;;;25.33;15.13;;;8.80;28.20;;;;;;4949463;29;20392;-78
2022/03/13 00:02:45;;;;;;;28.65;15.40;;;8.70;28.70;;;;;;4941150;29;20422;-78
2022/03/13 00:05:14;;;;;;;23.52;14.55;;;8.70;29.00;;;;;;4956426;28;20399;-77
2022/03/13 00:07:41;;;;;;;28.35;15.45;;;8.70;28.60;;;;;;4944021;28;20424;-80
2022/03/13 00:10:07;;;;;;;26.15;15.48;;;8.60;29.10;;;;;;4975467;28;20908;-80
2022/03/13 00:12:34;;;;;;;26.40;15.23;;;8.60;28.80;;;;;;4956124;29;20481;-79
2022/03/13 00:15:09;;;;;;;26.23;15.73;;;8.50;28.70;;;;;;4956990;28;20407;-79
2022/03/13 00:17:35;;;;;;;26.77;15.20;;;8.50;28.10;;;;;;4948883;28;20427;-79
2022/03/13 00:20:03;;;;;;;29.10;15.95;;;8.50;28.30;;;;;;4953975;28;20403;-78
2022/03/13 00:22:30;;;;;;;25.17;15.90;;;8.50;28.50;;;;;;4958005;29;20490;-80
2022/03/13 00:24:56;;;;;;;27.23;15.15;;;8.40;29.10;;;;;;4943812;28;20412;-80
2022/03/13 00:27:22;;;;;;;27.42;14.68;;;8.40;28.20;;;;;;4939880;28;20483;-79
2022/03/13 00:29:48;;;;;;;33.55;15.35;;;8.40;28.40;;;;;;4928206;28;20400;-77
2022/03/13 00:32:14;;;;;;;24.20;14.45;;;8.40;27.80;;;;;;4924322;28;20500;-77
2022/03/13 00:34:40;;;;;;;28.77;15.27;;;8.40;28.00;;;;;;4922902;28;20574;-79
2022/03/13 00:37:06;;;;;;;23.30;14.90;;;8.30;28.50;;;;;;4947864;28;20437;-78
2022/03/13 00:39:32;;;;;;;24.77;14.50;;;8.30;28.40;;;;;;4945572;28;20411;-78
2022/03/13 00:41:57;;;;;;;26.95;14.90;;;8.30;27.90;;;;;;4952652;28;20850;-79
2022/03/13 00:44:23;;;;;;;25.77;15.32;;;8.20;28.20;;;;;;4948739;28;20431;-79
2022/03/13 00:46:49;;;;;;;24.40;14.50;;;8.20;27.60;;;;;;4941676;28;20411;-78
2022/03/13 00:49:14;;;;;;;26.75;15.60;;;8.20;27.80;;;;;;4950105;28;20412;-77
2022/03/13 00:51:40;;;;;;;26.85;14.45;;;8.40;28.00;;;;;;4937451;28;20411;-77
2022/03/13 00:54:08;;;;;;;26.17;14.90;;;8.30;27.00;;;;;;4971098;28;20402;-80
2022/03/13 00:56:34;;;;;;;28.65;15.60;;;8.20;27.30;;;;;;4948765;28;20418;-78
2022/03/13 00:58:59;;;;;;;27.60;15.17;;;8.20;27.30;;;;;;4935200;28;20772;-78
2022/03/13 01:01:25;;;;;;;24.08;14.32;;;8.30;27.50;;;;;;4948742;28;20404;-79
2022/03/13 01:03:52;;;;;;;24.05;14.55;;;8.20;27.40;;;;;;4944288;29;20402;-79
2022/03/13 01:06:20;;;;;;;22.92;14.65;;;8.20;26.80;;;;;;4950656;28;20486;-79
2022/03/13 01:08:47;;;;;;;24.57;14.30;;;8.10;27.10;;;;;;4948660;28;20411;-79
2022/03/13 01:11:21;;;;;;;22.98;14.13;;;8.30;26.40;;;;;;4951481;28;20479;-79
2022/03/13 01:13:47;;;;;;;23.77;13.35;;;8.30;25.30;;;;;;4947262;28;21048;-78
2022/03/13 01:16:25;;;;;;;27.70;14.55;;;8.20;25.60;;;;;;4934711;28;20923;-78
2022/03/13 01:18:58;;;;;;;19.98;12.95;;;8.30;25.20;;;;;;4947733;29;20418;-78
2022/03/13 01:21:24;;;;;;;29.88;13.18;;;8.20;24.40;;;;;;4931064;28;20446;-77
2022/03/13 01:23:58;;;;;;;21.83;13.05;;;8.30;24.20;;;;;;4943510;28;20407;-78
2022/03/13 01:26:24;;;;;;;20.48;12.00;;;8.30;24.20;;;;;;4947906;28;20398;-77
2022/03/13 01:28:53;;;;;;;20.70;13.03;;;8.20;23.20;;;;;;4964522;28;20538;-78
2022/03/13 01:31:24;;;;;;;23.23;13.07;;;8.20;22.30;;;;;;4953149;28;20457;-78
2022/03/13 01:33:50;;;;;;;23.00;11.90;;;8.40;22.80;;;;;;4945163;28;20407;-78
2022/03/13 01:36:16;;;;;;;17.42;11.75;;;8.40;22.20;;;;;;4935021;28;20941;-79
2022/03/13 01:38:41;;;;;;;24.50;12.40;;;8.40;21.50;;;;;;4956930;28;20414;-77
2022/03/13 01:41:08;;;;;;;22.67;12.77;;;8.40;20.70;;;;;;4930762;28;20497;-78
2022/03/13 01:43:34;;;;;;;21.85;12.10;;;8.40;20.60;;;;;;4943504;28;20467;-79
2022/03/13 01:46:01;;;;;;;20.30;12.68;;;8.30;20.70;;;;;;4935839;29;20483;-79
2022/03/13 01:48:28;;;;;;;21.55;12.13;;;8.40;21.50;;;;;;4943347;28;20447;-78
2022/03/13 01:50:55;;;;;;;20.95;12.35;;;8.50;19.30;;;;;;4969542;28;20492;-78
2022/03/13 01:53:21;;;;;;;20.25;12.10;;;8.60;19.30;;;;;;4937965;28;20406;-78
2022/03/13 01:55:56;;;;;;;18.73;11.82;;;8.40;19.80;;;;;;4943135;28;20412;-78
2022/03/13 01:58:22;;;;;;;21.70;12.40;;;8.50;19.50;;;;;;4946968;28;20928;-78
2022/03/13 02:00:48;;;;;;;21.38;11.80;;;8.40;20.00;;;;;;4934301;28;20403;-78
2022/03/13 02:03:16;;;;;;;19.58;11.75;;;8.40;19.50;;;;;;4940903;28;20921;-77
2022/03/13 02:05:42;;;;;;;20.58;11.90;;;8.50;19.00;;;;;;4935849;28;20486;-77
2022/03/13 02:08:20;;;;;;;20.05;12.60;;;8.30;19.90;;;;;;4931724;28;20403;-77
2022/03/13 02:10:46;;;;;;;18.10;12.10;;;8.30;19.20;;;;;;4924056;28;20987;-77
2022/03/13 02:13:15;;;;;;;21.73;12.20;;;8.40;18.80;;;;;;4936960;28;20892;-78
2022/03/13 02:15:41;;;;;;;21.00;12.00;;;8.30;19.10;;;;;;4962641;28;20465;-78
2022/03/13 02:18:07;;;;;;;22.23;12.40;;;8.30;18.40;;;;;;4962124;28;20429;-78
2022/03/13 02:20:44;;;;;;;20.65;13.10;;;8.20;19.00;;;;;;4960294;28;20404;-79
2022/03/13 02:23:24;;;;;;;22.98;12.18;;;8.20;19.20;;;;;;4947765;28;20463;-78
2022/03/13 02:25:51;;;;;;;21.92;12.30;;;8.20;19.10;;;;;;4953831;28;20758;-77
2022/03/13 02:28:23;;;;;;;23.45;13.02;;;8.10;18.90;;;;;;4952136;28;20410;-77
2022/03/13 02:30:50;;;;;;;20.20;11.88;;;8.10;19.90;;;;;;4958815;28;20406;-78
2022/03/13 02:33:23;;;;;;;22.27;12.97;;;8.00;19.30;;;;;;4947937;28;20459;-78
2022/03/13 02:35:56;;;;;;;19.83;12.60;;;8.10;18.60;;;;;;4960295;28;20406;-78
2022/03/13 02:38:23;;;;;;;22.63;12.63;;;8.10;18.50;;;;;;4959860;29;20464;-78
2022/03/13 02:40:48;;;;;;;19.80;12.23;;;8.10;18.60;;;;;;4958577;28;20421;-78
2022/03/13 02:43:15;;;;;;;20.90;12.20;;;8.00;18.50;;;;;;4959715;28;20411;-78
2022/03/13 02:45:41;;;;;;;19.33;12.02;;;8.00;18.10;;;;;;4963731;28;20425;-78
2022/03/13 02:48:08;;;;;;;20.65;12.20;;;8.00;17.60;;;;;;4957864;28;20409;-78
2022/03/13 02:50:35;;;;;;;22.90;11.55;;;8.00;17.50;;;;;;4942668;28;20407;-77
2022/03/13 02:53:01;;;;;;;20.37;11.97;;;7.90;17.60;;;;;;4956761;28;20465;-77
2022/03/13 02:55:27;;;;;;;18.88;12.10;;;7.90;17.50;;;;;;4950233;28;20462;-77
2022/03/13 02:57:53;;;;;;;23.80;13.10;;;7.90;17.30;;;;;;4956064;28;20411;-77
2022/03/13 03:00:20;;;;;;;22.67;12.17;;;7.80;17.00;;;;;;4960632;28;20439;-77
2022/03/13 03:02:46;;;;;;;20.55;12.70;;;7.80;17.50;;;;;;4937990;28;20421;-77
2022/03/13 03:05:11;;;;;;;20.35;12.15;;;7.60;16.90;;;;;;4966171;28;20427;-77
2022/03/13 03:07:38;;;;;;;16.70;11.00;;;7.70;16.90;;;;;;4967652;28;20401;-77
2022/03/13 03:10:05;;;;;;;20.08;11.80;;;7.60;16.80;;;;;;4979378;28;20418;-78
2022/03/13 03:12:31;;;;;;;18.63;10.88;;;7.70;16.50;;;;;;4986625;28;20408;-76
2022/03/13 03:14:57;;;;;;;18.55;11.10;;;7.70;16.80;;;;;;4953883;28;20420;-77
2022/03/13 03:17:22;;;;;;;22.10;11.77;;;7.80;15.70;;;;;;4956126;28;20455;-78
2022/03/13 03:19:48;;;;;;;21.98;11.30;;;7.80;15.70;;;;;;4937905;28;20411;-79
2022/03/13 03:22:15;;;;;;;17.73;11.10;;;7.80;15.70;;;;;;4951184;28;20412;-77
2022/03/13 03:24:41;;;;;;;19.77;11.68;;;7.80;15.60;;;;;;4956597;28;20419;-77
2022/03/13 03:27:07;;;;;;;18.70;11.25;;;7.90;14.60;;;;;;4937068;28;20407;-77
2022/03/13 03:29:33;;;;;;;19.92;12.05;;;7.80;14.40;;;;;;4946879;28;20400;-77
2022/03/13 03:31:59;;;;;;;20.10;12.10;;;7.80;14.10;;;;;;4945103;28;20485;-78
2022/03/13 03:34:27;;;;;;;17.67;11.10;;;7.80;14.00;;;;;;4949111;28;20399;-77
2022/03/13 03:37:01;;;;;;;20.73;11.90;;;7.90;14.10;;;;;;4957132;28;20407;-78
2022/03/13 03:39:28;;;;;;;20.75;11.82;;;7.80;14.70;;;;;;4952780;28;20405;-78
2022/03/13 03:41:54;;;;;;;18.73;11.13;;;7.80;13.30;;;;;;4937229;28;20444;-77
2022/03/13 03:44:22;;;;;;;19.38;11.60;;;7.80;13.60;;;;;;4970683;28;20493;-77
2022/03/13 03:46:50;;;;;;;16.52;11.23;;;7.70;13.10;;;;;;4945081;28;20411;-76
2022/03/13 03:49:17;;;;;;;20.77;12.10;;;7.70;12.80;;;;;;4988297;28;20554;-77
2022/03/13 03:51:44;;;;;;;20.17;12.13;;;7.60;12.90;;;;;;4946196;28;20396;-78
2022/03/13 03:54:10;;;;;;;20.35;12.20;;;7.60;12.90;;;;;;4938850;28;20404;-78
2022/03/13 03:56:36;;;;;;;18.98;12.10;;;7.60;13.60;;;;;;4964781;28;20402;-79
2022/03/13 03:59:03;;;;;;;22.87;12.00;;;7.60;13.00;;;;;;4947139;28;20477;-78
2022/03/13 04:01:37;;;;;;;20.97;11.13;;;7.50;12.50;;;;;;4950738;28;20449;-78
2022/03/13 04:04:07;;;;;;;20.85;11.50;;;7.60;13.70;;;;;;4946315;28;20801;-76
2022/03/13 04:06:40;;;;;;;19.40;11.10;;;7.50;13.20;;;;;;4942708;28;20959;-77
2022/03/13 04:09:07;;;;;;;17.98;11.50;;;7.60;13.80;;;;;;4953958;29;20432;-79
2022/03/13 04:11:34;;;;;;;17.77;10.93;;;7.50;13.10;;;;;;4977354;28;20398;-79
2022/03/13 04:14:00;;;;;;;18.65;11.40;;;7.60;12.80;;;;;;4947178;28;20773;-78
2022/03/13 04:16:25;;;;;;;18.48;11.32;;;7.50;13.50;;;;;;4933722;28;20402;-80
2022/03/13 04:18:51;;;;;;;23.08;12.00;;;7.50;13.60;;;;;;4946499;28;20439;-78
2022/03/13 04:21:17;;;;;;;21.58;11.63;;;7.40;13.30;;;;;;4948824;28;20417;-78
2022/03/13 04:23:43;;;;;;;23.50;12.10;;;7.40;13.30;;;;;;4952264;28;20407;-78
2022/03/13 04:26:09;;;;;;;25.03;11.80;;;7.50;14.00;;;;;;4934827;28;20740;-78
2022/03/13 04:28:35;;;;;;;21.03;11.57;;;7.50;14.00;;;;;;4949440;28;20422;-78
2022/03/13 04:31:00;;;;;;;20.30;11.10;;;7.50;13.80;;;;;;4935229;28;20434;-78
2022/03/13 04:33:28;;;;;;;19.52;11.70;;;7.60;14.00;;;;;;4937901;28;20427;-78
2022/03/13 04:35:58;;;;;;;18.55;10.82;;;7.50;14.10;;;;;;4957839;28;20406;-78
2022/03/13 04:38:26;;;;;;;22.20;11.70;;;7.40;13.90;;;;;;4927139;28;20481;-77
2022/03/13 04:40:53;;;;;;;20.15;11.88;;;7.50;14.30;;;;;;4944235;28;20402;-77
2022/03/13 04:43:20;;;;;;;21.58;12.32;;;7.60;14.20;;;;;;4939323;28;20455;-77
2022/03/13 04:45:45;;;;;;;19.03;11.47;;;7.60;13.40;;;;;;4944705;29;20402;-78
2022/03/13 04:48:11;;;;;;;20.60;11.68;;;7.50;12.90;;;;;;4962215;28;20759;-78
2022/03/13 04:50:37;;;;;;;19.13;11.30;;;7.60;13.60;;;;;;4927412;28;20504;-77
2022/03/13 04:53:03;;;;;;;18.10;11.50;;;7.70;12.30;;;;;;4925546;28;20404;-77
2022/03/13 04:55:28;;;;;;;21.57;12.10;;;7.80;12.40;;;;;;4933943;28;20445;-77
2022/03/13 04:57:54;;;;;;;19.23;11.27;;;7.90;12.80;;;;;;4948158;28;20426;-78
2022/03/13 05:00:19;;;;;;;20.17;11.90;;;7.90;13.30;;;;;;4950943;28;20415;-77
2022/03/13 05:02:45;;;;;;;21.73;11.80;;;8.00;13.10;;;;;;4959792;28;20398;-79
2022/03/13 05:05:11;;;;;;;18.80;11.10;;;8.10;13.50;;;;;;4949400;28;20494;-78
2022/03/13 05:07:39;;;;;;;16.90;10.60;;;8.20;12.40;;;;;;4940934;28;20406;-79
2022/03/13 05:10:06;;;;;;;17.85;11.02;;;8.30;12.50;;;;;;4940206;28;20409;-78
2022/03/13 05:12:32;;;;;;;18.60;11.50;;;8.30;11.00;;;;;;4964400;28;20399;-78
2022/03/13 05:14:58;;;;;;;21.35;11.63;;;8.30;10.00;;;;;;4921343;28;20454;-78
2022/03/13 05:17:24;;;;;;;17.73;11.10;;;8.40;9.60;;;;;;4920362;28;20455;-78
2022/03/13 05:19:49;;;;;;;24.87;11.23;;;8.40;9.30;;;;;;4954273;28;20401;-77
2022/03/13 05:22:15;;;;;;;19.93;11.73;;;8.40;9.10;;;;;;4932883;28;20402;-76
2022/03/13 05:24:40;;;;;;;17.07;10.60;;;8.30;9.40;;;;;;4949060;28;20401;-77
2022/03/13 05:27:06;;;;;;;19.47;11.30;;;8.50;9.30;;;;;;4962496;28;20544;-77
2022/03/13 05:29:32;;;;;;;21.05;11.27;;;8.40;9.50;;;;;;4930386;28;20403;-78
2022/03/13 05:31:57;;;;;;;20.88;11.25;;;8.40;10.30;;;;;;4931358;28;20898;-76
2022/03/13 05:34:23;;;;;;;18.00;10.13;;;8.50;9.80;;;;;;4920508;28;20896;-78
2022/03/13 05:36:48;;;;;;;18.95;11.48;;;8.50;10.90;;;;;;4944856;28;20847;-78
2022/03/13 05:39:14;;;;;;;18.60;10.95;;;8.40;9.80;;;;;;4942214;28;20420;-79
2022/03/13 05:41:40;;;;;;;18.08;10.77;;;8.40;9.00;;;;;;4944952;28;20481;-77
2022/03/13 05:44:09;;;;;;;16.98;10.80;;;8.40;8.80;;;;;;4928027;28;20441;-79
2022/03/13 05:46:36;;;;;;;19.58;11.73;;;8.30;9.40;;;;;;4947804;28;20770;-77
2022/03/13 05:49:03;;;;;;;16.85;10.88;;;8.30;8.50;;;;;;4939806;28;20426;-77
2022/03/13 05:51:35;;;;;;;21.88;11.55;;;8.40;8.60;;;;;;4937935;28;20402;-78
2022/03/13 05:54:02;;;;;;;16.70;10.75;;;8.40;8.80;;;;;;4952351;28;20434;-78
2022/03/13 05:56:28;;;;;;;19.65;11.40;;;8.50;9.00;;;;;;4951021;28;20905;-78
2022/03/13 05:58:53;;;;;;;14.80;9.90;;;8.50;7.70;;;;;;4963851;28;20418;-78
2022/03/13 06:01:19;;;;;;;21.57;11.40;;;8.60;8.80;;;;;;4942842;29;20409;-78
2022/03/13 06:03:44;;;;;;;18.23;10.93;;;8.70;8.00;;;;;;4940730;28;20410;-78
2022/03/13 06:06:10;;;;;;;17.83;10.87;;;8.70;8.20;;;;;;4922694;28;20425;-78
2022/03/13 06:08:37;;;;;;;24.53;11.20;;;8.70;7.50;;;;;;4949461;28;20905;-78
2022/03/13 06:11:03;;;;;;;16.58;10.60;;;8.90;7.10;;;;;;4945648;28;20404;-78
2022/03/13 06:13:29;;;;;;;18.90;10.40;;;8.80;6.60;;;;;;4948383;28;20407;-79
2022/03/13 06:15:55;;;;;;;17.73;11.00;;;8.80;7.70;;;;;;4940140;28;20419;-79
2022/03/13 06:18:21;;;;;;;17.92;10.40;;;8.90;7.50;;;;;;4952036;28;20530;-78
2022/03/13 06:20:46;;;;;;;18.53;11.20;;;8.80;7.00;;;;;;4953430;28;20398;-78
2022/03/13 06:23:13;;;;;;;15.70;9.90;;;8.80;7.00;;;;;;4950290;28;20398;-79
2022/03/13 06:25:40;;;;;;;16.70;11.00;;;8.90;7.30;;;;;;4947768;28;20484;-78
2022/03/13 06:28:05;;;;;;;19.03;10.63;;;8.90;7.10;;;;;;4978835;28;20482;-78
2022/03/13 06:30:31;;;;;;;20.47;11.07;;;8.90;6.80;;;;;;4945609;28;20481;-78
2022/03/13 06:32:56;;;;;;;17.60;10.77;;;8.90;6.90;;;;;;4941358;28;20447;-78
2022/03/13 06:35:23;;;;;;;15.47;10.47;;;8.90;7.60;;;;;;4921235;28;20407;-79
2022/03/13 06:37:50;;;;;;;17.92;10.82;;;8.90;7.00;;;;;;4942519;28;20444;-78
2022/03/13 06:40:20;;;;;;;18.40;10.50;;;8.80;6.90;;;;;;4954213;28;20760;-79
2022/03/13 06:42:48;;;;;;;20.02;10.80;;;8.90;7.50;;;;;;4964812;28;20387;-78
2022/03/13 06:45:14;;;;;;;18.08;10.35;;;8.90;7.60;;;;;;4949289;28;20399;-77
2022/03/13 06:47:41;;;;;;;16.30;10.82;;;8.90;7.30;;;;;;4924016;28;20422;-78
2022/03/13 06:50:08;;;;;;;18.63;10.63;;;8.90;7.80;;;;;;4937269;28;20408;-78
2022/03/13 06:52:34;;;;;;;20.23;10.50;;;9.00;7.20;;;;;;4941728;28;20451;-78
2022/03/13 06:55:00;;;;;;;14.93;10.30;;;9.00;6.90;;;;;;4963379;28;20400;-79
2022/03/13 06:57:26;;;;;;;17.95;10.68;;;9.10;6.70;;;;;;4932177;28;20475;-77
2022/03/13 06:59:51;;;;;;;19.00;10.80;;;9.10;7.30;;;;;;4931233;28;20805;-77
2022/03/13 07:02:17;;;;;;;19.35;10.95;;;9.20;7.90;;;;;;4942385;28;20396;-80
2022/03/13 07:04:43;;;;;;;18.33;10.75;;;9.00;6.40;;;;;;4959135;28;20427;-79
2022/03/13 07:07:08;;;;;;;18.15;10.70;;;9.10;7.70;;;;;;4948647;28;20408;-78
2022/03/13 07:09:34;;;;;;;16.17;10.35;;;9.30;8.60;;;;;;4938302;28;20916;-78
2022/03/13 07:12:00;;;;;;;16.67;10.43;;;9.10;6.30;;;;;;4928054;28;20508;-78
2022/03/13 07:14:26;;;;;;;15.57;10.70;;;9.20;6.50;;;;;;4960107;28;20413;-78
2022/03/13 07:16:52;;;;;;;16.93;10.60;;;9.30;6.10;;;;;;4941463;28;20610;-78
2022/03/13 07:19:18;;;;;;;15.13;10.63;;;9.60;6.80;;;;;;4953224;28;20420;-79
2022/03/13 07:21:44;;;;;;;22.13;10.90;;;9.70;6.00;;;;;;4947509;28;20398;-77
2022/03/13 07:24:09;;;;;;;17.25;11.02;;;9.80;6.40;;;;;;4954893;28;20493;-78
2022/03/13 07:26:35;;;;;;;17.23;11.00;;;9.70;6.40;;;;;;4931607;28;20405;-78
2022/03/13 07:29:01;;;;;;;16.75;10.32;;;9.80;5.70;;;;;;4979012;28;20879;-77
2022/03/13 07:31:30;;;;;;;18.02;10.70;;;9.80;5.20;;;;;;4942004;28;20408;-78
2022/03/13 07:33:57;;;;;;;18.27;11.93;;;9.80;5.70;;;;;;4966545;28;20403;-78
2022/03/13 07:36:23;;;;;;;16.45;10.32;;;9.80;4.80;;;;;;4948615;28;20414;-77
2022/03/13 07:38:49;;;;;;;18.02;10.60;;;10.00;5.80;;;;;;4918021;28;20514;-78
2022/03/13 07:41:14;;;;;;;19.98;11.00;;;9.90;5.90;;;;;;4924214;28;20881;-78
2022/03/13 07:43:40;;;;;;;20.60;11.13;;;9.90;5.90;;;;;;4963133;28;20407;-78
2022/03/13 07:46:06;;;;;;;18.80;10.80;;;10.20;5.80;;;;;;4932705;28;20404;-79
2022/03/13 07:48:34;;;;;;;16.43;10.60;;;10.10;5.20;;;;;;4942861;28;20434;-79
2022/03/13 07:51:01;;;;;;;19.20;11.13;;;10.00;5.10;;;;;;4950412;28;20837;-77
2022/03/13 07:53:27;;;;;;;20.40;11.32;;;9.90;4.90;;;;;;4949694;28;20402;-76
2022/03/13 07:55:54;;;;;;;19.57;11.07;;;9.90;5.20;;;;;;4950117;29;20632;-78
2022/03/13 07:58:20;;;;;;;19.33;10.80;;;9.90;5.30;;;;;;4960157;28;20445;-77
2022/03/13 08:00:46;;;;;;;16.90;11.02;;;10.00;5.70;;;;;;4934560;28;20417;-77
2022/03/13 08:03:15;;;;;;;18.33;11.52;;;10.00;5.30;;;;;;4940012;29;20817;-76
2022/03/13 08:05:40;;;;;;;18.95;11.25;;;10.00;5.40;;;;;;4934998;28;20446;-77
2022/03/13 08:08:06;;;;;;;17.80;11.57;;;10.10;5.40;;;;;;4935115;28;20415;-77
2022/03/13 08:10:31;;;;;;;20.23;10.97;;;10.00;4.90;;;;;;4918914;28;20444;-77
2022/03/13 08:12:57;;;;;;;19.33;11.63;;;10.10;5.30;;;;;;4920524;28;20507;-77
2022/03/13 08:15:23;;;;;;;19.75;11.50;;;10.10;6.50;;;;;;4934076;28;20408;-76
2022/03/13 08:17:48;;;;;;;20.95;11.88;;;10.00;5.90;;;;;;4927984;28;20435;-76
2022/03/13 08:20:14;;;;;;;15.48;10.35;;;10.10;5.90;;;;;;4929969;28;20480;-75
2022/03/13 08:22:40;;;;;;;20.73;11.73;;;10.20;5.90;;;;;;4933775;28;20447;-75
2022/03/13 08:25:06;;;;;;;23.50;11.57;;;10.20;5.30;;;;;;4921801;28;20495;-76
2022/03/13 08:27:33;;;;;;;18.67;11.93;;;10.10;6.30;;;;;;4933456;28;20426;-75
2022/03/13 08:29:58;;;;;;;21.88;11.85;;;10.10;5.40;;;;;;4932632;29;20415;-76
2022/03/13 08:32:24;;;;;;;21.42;13.82;;;10.10;6.40;;;;;;4932236;28;20944;-77
2022/03/13 08:34:52;;;;;;;18.92;11.57;;;10.20;7.80;;;;;;4930644;28;20912;-76
2022/03/13 08:37:17;;;;;;;20.23;11.75;;;10.40;6.10;;;;;;4923342;28;20780;-78
2022/03/13 08:39:43;;;;;;;20.73;11.00;;;10.50;6.20;;;;;;4932660;28;20414;-78
2022/03/13 08:42:09;;;;;;;21.80;12.48;;;10.50;6.20;;;;;;4936021;28;20403;-78
2022/03/13 08:44:34;;;;;;;21.02;12.40;;;10.80;6.20;;;;;;4920274;28;20415;-78
2022/03/13 08:47:00;;;;;;;20.73;12.43;;;10.80;5.70;;;;;;4935266;28;20498;-76
2022/03/13 08:49:26;;;;;;;19.98;12.00;;;10.70;6.30;;;;;;4928466;28;20452;-76
2022/03/13 08:51:52;;;;;;;19.98;12.63;;;10.80;5.70;;;;;;4934487;28;20465;-78
2022/03/13 08:54:19;;;;;;;20.90;11.80;;;10.80;5.10;;;;;;4956416;28;20419;-77
2022/03/13 08:56:46;;;;;;;20.40;12.50;;;11.10;5.00;;;;;;4929345;28;20415;-79
2022/03/13 08:59:11;;;;;;;22.45;12.60;;;11.10;5.00;;;;;;4917272;28;20524;-77
2022/03/13 09:01:37;;;;;;;20.30;12.67;;;11.40;4.80;;;;;;4943012;28;20406;-77
2022/03/13 09:04:03;;;;;;;21.13;11.73;;;11.60;4.90;;;;;;4941306;28;20709;-77
2022/03/13 09:06:28;;;;;;;17.23;11.73;;;11.80;4.20;;;;;;4921009;28;20404;-76
2022/03/13 09:08:54;;;;;;;17.70;12.10;;;12.00;4.50;;;;;;4928259;28;20468;-76
2022/03/13 09:11:20;;;;;;;21.77;13.30;;;12.20;4.20;;;;;;4928964;28;20432;-77
2022/03/13 09:13:46;;;;;;;24.07;12.60;;;12.20;3.90;;;;;;4929522;28;20786;-77
2022/03/13 09:16:11;;;;;;;25.57;13.60;;;12.30;3.50;;;;;;4937944;28;20449;-76
2022/03/13 09:18:37;;;;;;;22.93;13.37;;;12.20;4.20;;;;;;4919486;28;20423;-77
2022/03/13 09:21:03;;;;;;;20.37;13.47;;;12.10;4.00;;;;;;4923430;28;20917;-77
2022/03/13 09:23:29;;;;;;;22.77;14.10;;;12.10;3.80;;;;;;4933386;28;20416;-79
2022/03/13 09:25:55;;;;;;;23.55;13.50;;;12.20;4.40;;;;;;4931804;28;20923;-77
2022/03/13 09:28:22;;;;;;;21.13;14.10;;;12.50;3.60;;;;;;4929523;28;20419;-80
2022/03/13 09:30:48;;;;;;;20.50;14.20;;;12.30;3.90;;;;;;4929717;28;20864;-76
2022/03/13 09:33:14;;;;;;;26.15;13.80;;;12.20;4.60;;;;;;4936013;28;20833;-78
2022/03/13 09:35:40;;;;;;;26.20;14.30;;;12.20;4.20;;;;;;4932050;28;20441;-74
2022/03/13 09:38:07;;;;;;;22.48;13.60;;;12.30;4.60;;;;;;4936321;28;20525;-77
2022/03/13 09:40:35;;;;;;;24.00;14.10;;;12.40;4.90;;;;;;4937164;28;20443;-77
2022/03/13 09:43:05;;;;;;;27.13;14.20;;;12.60;4.30;;;;;;4929760;28;20439;-77
2022/03/13 09:45:31;;;;;;;23.55;13.88;;;12.40;4.10;;;;;;4942408;28;20404;-77
2022/03/13 09:47:57;;;;;;;26.40;14.25;;;12.60;4.20;;;;;;4921111;28;20437;-77
2022/03/13 09:50:22;;;;;;;26.57;13.53;;;12.60;4.00;;;;;;4931430;28;20415;-76
2022/03/13 09:52:49;;;;;;;24.53;14.07;;;12.70;4.50;;;;;;4926839;28;20973;-76
2022/03/13 09:55:15;;;;;;;23.58;14.20;;;12.70;4.30;;;;;;4937486;28;20444;-77
2022/03/13 09:57:43;;;;;;;22.17;13.70;;;12.40;4.80;;;;;;4931635;28;20428;-76
2022/03/13 10:00:12;;;;;;;22.27;13.60;;;12.50;4.90;;;;;;4922695;28;20499;-74
2022/03/13 10:02:38;;;;;;;21.40;13.93;;;12.40;5.00;;;;;;4915780;28;21112;-76
2022/03/13 10:05:08;;;;;;;24.88;13.73;;;12.30;5.60;;;;;;4927221;28;20469;-75
2022/03/13 10:07:54;;;;;;;24.80;14.00;;;12.30;5.60;;;;;;4925364;28;20421;-77
2022/03/13 10:10:24;;;;;;;25.38;14.13;;;12.50;5.40;;;;;;4929635;28;20408;-77
2022/03/13 10:12:50;;;;;;;24.77;14.60;;;12.50;5.40;;;;;;4923891;28;20426;-77
2022/03/13 10:15:16;;;;;;;25.60;15.02;;;12.40;5.30;;;;;;4928017;28;20896;-78
2022/03/13 10:17:42;;;;;;;27.13;14.13;;;12.40;6.50;;;;;;4930056;28;20432;-76
2022/03/13 10:20:14;;;;;;;23.57;14.57;;;12.50;6.00;;;;;;4925198;28;20955;-77
2022/03/13 10:22:40;;;;;;;24.40;14.40;;;12.70;6.40;;;;;;4934394;28;20467;-76
2022/03/13 10:25:06;;;;;;;28.10;15.20;;;12.70;5.80;;;;;;4934372;28;20561;-75
2022/03/13 10:27:34;;;;;;;27.23;15.98;;;12.80;6.80;;;;;;4914367;28;20425;-77
2022/03/13 10:30:07;;;;;;;22.70;14.63;;;12.80;5.90;;;;;;4927853;28;20427;-77
2022/03/13 10:32:33;;;;;;;21.73;14.90;;;12.90;6.80;;;;;;4928310;28;20420;-77
2022/03/13 10:34:58;;;;;;;23.02;14.48;;;12.90;6.00;;;;;;4933357;28;20805;-76
2022/03/13 10:37:43;;;;;;;24.13;14.88;;;13.10;6.90;;;;;;4936059;28;20473;-77
2022/03/13 10:40:15;;;;;;;23.38;14.90;;;13.20;6.00;;;;;;4938682;28;20443;-79
2022/03/13 10:42:43;;;;;;;25.95;14.70;;;13.30;6.70;;;;;;4911675;28;20407;-77
2022/03/13 10:45:37;;;;;;;23.80;15.00;;;13.40;6.40;;;;;;4927554;28;20852;-73
2022/03/13 10:48:28;;;;;;;25.65;15.70;;;13.40;6.60;;;;;;4932876;28;20440;-77
2022/03/13 10:51:00;;;;;;;25.15;14.45;;;13.60;7.50;;;;;;4945171;28;20504;-78
2022/03/13 10:53:30;;;;;;;29.02;15.93;;;13.80;7.80;;;;;;4930831;28;20412;-76
2022/03/13 10:56:07;;;;;;;25.42;15.98;;;13.80;7.10;;;;;;4930849;28;20851;-75
2022/03/13 10:58:38;;;;;;;24.30;15.20;;;13.80;6.80;;;;;;4944316;28;20431;-77
2022/03/13 11:01:09;;;;;;;28.63;17.15;;;13.90;8.00;;;;;;4928815;28;20403;-76
2022/03/13 11:03:36;;;;;;;24.65;15.82;;;13.80;6.70;;;;;;4935846;28;20482;-76
2022/03/13 11:06:03;;;;;;;27.00;15.70;;;13.90;6.40;;;;;;4921865;28;20425;-77
2022/03/13 11:08:29;;;;;;;30.20;14.80;;;14.20;7.40;;;;;;4934039;28;20412;-78
2022/03/13 11:10:55;;;;;;;30.53;15.90;;;14.30;7.40;;;;;;4930486;28;20464;-77
2022/03/13 11:13:25;;;;;;;23.95;15.95;;;14.50;7.20;;;;;;4933921;28;20950;-75
2022/03/13 11:15:55;;;;;;;28.00;15.98;;;14.80;7.50;;;;;;4934174;28;20435;-76
2022/03/13 11:18:29;;;;;;;24.77;15.15;;;14.80;7.60;;;;;;4945007;28;20440;-77
2022/03/13 11:20:54;;;;;;;28.03;15.50;;;14.90;8.50;;;;;;4961790;28;20466;-75
2022/03/13 11:23:20;;;;;;;25.77;15.50;;;15.00;7.40;;;;;;4953519;28;20403;-76
2022/03/13 11:25:49;;;;;;;31.38;16.42;;;15.00;8.00;;;;;;4960541;28;20882;-77
2022/03/13 11:28:16;;;;;;;27.10;16.17;;;15.00;9.10;;;;;;4940749;28;20408;-76
2022/03/13 11:30:42;;;;;;;27.13;16.10;;;15.20;7.90;;;;;;4949893;28;20449;-77
2022/03/13 11:33:28;;;;;;;22.95;15.63;;;15.30;7.90;;;;;;4949139;28;20447;-77
2022/03/13 11:36:13;;;;;;;26.08;15.20;;;15.40;8.10;;;;;;4951905;28;20438;-77
2022/03/13 11:38:55;;;;;;;30.20;16.30;;;15.40;8.00;;;;;;4947105;28;20758;-77
2022/03/13 11:41:39;;;;;;;23.50;15.60;;;15.40;7.70;;;;;;4931768;28;20404;-77
2022/03/13 11:44:28;;;;;;;27.17;16.83;;;15.40;8.10;;;;;;4966838;28;20397;-75
2022/03/13 11:46:55;;;;;;;22.92;15.88;;;15.50;7.50;;;;;;4949664;28;20398;-75
2022/03/13 11:49:30;;;;;;;26.55;15.43;;;15.60;8.60;;;;;;4947810;28;20419;-76
2022/03/13 11:52:11;;;;;;;23.38;15.32;;;15.80;7.50;;;;;;4964149;28;20439;-77
2022/03/13 11:54:57;;;;;;;26.83;15.30;;;15.80;7.80;;;;;;4947430;28;20410;-76
2022/03/13 11:57:28;;;;;;;28.17;15.63;;;15.90;8.20;;;;;;4947666;28;20425;-76
2022/03/13 12:00:17;;;;;;;25.52;15.98;;;16.10;8.60;;;;;;4929888;28;20404;-78
2022/03/13 12:02:44;;;;;;;25.55;15.60;;;16.10;8.50;;;;;;4966784;28;20894;-77
2022/03/13 12:05:25;;;;;;;29.20;15.30;;;15.90;8.50;;;;;;4947482;28;20545;-77
2022/03/13 12:08:08;;;;;;;28.23;15.98;;;16.10;8.20;;;;;;4945194;28;20795;-78
2022/03/13 12:10:42;;;;;;;23.57;15.00;;;16.20;7.80;;;;;;4937478;28;20588;-77
2022/03/13 12:13:10;;;;;;;22.65;14.40;;;16.30;8.20;;;;;;4942456;28;20596;-78
2022/03/13 12:15:37;;;;;;;21.70;13.40;;;16.30;8.80;;;;;;4948165;28;20480;-76
2022/03/13 12:18:29;;;;;;;20.10;13.25;;;16.40;8.30;;;;;;4948358;28;20473;-77
2022/03/13 12:21:09;;;;;;;24.38;13.57;;;16.50;9.50;;;;;;4946047;28;20398;-77
2022/03/13 12:23:38;;;;;;;21.23;14.40;;;16.60;8.10;;;;;;4934856;28;20415;-76
2022/03/13 12:26:30;;;;;;;26.23;15.18;;;16.60;7.70;;;;;;4947008;28;20417;-76
2022/03/13 12:28:57;;;;;;;21.70;14.02;;;16.40;7.60;;;;;;4940845;29;20411;-77
2022/03/13 12:31:24;;;;;;;24.10;14.55;;;16.40;8.00;;;;;;4950209;28;20411;-77
2022/03/13 12:33:51;;;;;;;22.08;14.30;;;16.40;8.50;;;;;;4950916;28;20511;-78
2022/03/13 12:36:19;;;;;;;21.48;14.68;;;16.50;7.50;;;;;;4953330;28;20777;-76
2022/03/13 12:38:48;;;;;;;23.95;14.38;;;16.60;7.20;;;;;;4933970;28;20435;-77
2022/03/13 12:41:14;;;;;;;21.05;13.68;;;16.60;7.80;;;;;;4939035;28;20410;-77